Terminal Aerodrome Forecast
Issued by NWS

Current Version | Previous Version | Text Only | Print | Product List | Glossary On
Versions: 1 2 3 4 5 6 7 8 9 10 11 12 13 14 15 16 17
000
FTUS41 KCLE 191100
TAFFDY
TAF
KFDY 191135Z 1912/2012 07012KT P6SM BKN200
     FM191400 08012G22KT P6SM SCT060 OVC150
     FM191900 11015G25KT 5SM -SHRA SCT025 OVC060
     FM192100 12015G25KT 3SM -SHRA SCT010 OVC025
     FM200000 14015G25KT 6SM -SHRA VCTS OVC010CB
     FM200500 23015G22KT P6SM VCSH OVC030=

USA.gov is the U.S. government's official web portal to all federal, state and local government web resources and services.